Time;durP1;ratioP1;P1;durP2;ratioP2;P2;SDS_P1;SDS_P2;PMS_P1;PMS_P2;Temp;Humidity;BMP_temperature;BMP_pressure;BME280_temperature;BME280_humidity;BME280_pressure;Samples;Min_cycle;Max_cycle;Signal;HPM_P1;HPM_P2
2021/04/09 00:01:43;;;;;;;7.67;4.57;;;9.40;40.70;;;;;;5032396;28;20630;-51
2021/04/09 00:04:10;;;;;;;7.60;4.73;;;9.40;40.50;;;;;;5017248;28;20681;-49
2021/04/09 00:06:37;;;;;;;5.10;4.50;;;9.30;40.60;;;;;;5031135;28;20683;-50
2021/04/09 00:09:04;;;;;;;6.03;3.93;;;9.40;40.80;;;;;;5032107;28;20700;-49
2021/04/09 00:11:31;;;;;;;5.73;4.53;;;9.30;40.80;;;;;;5032869;28;20657;-49
2021/04/09 00:13:58;;;;;;;7.27;4.70;;;9.30;40.50;;;;;;5031722;28;20657;-51
2021/04/09 00:16:25;;;;;;;5.87;5.07;;;9.30;40.80;;;;;;5032013;28;20665;-52
2021/04/09 00:18:52;;;;;;;9.10;4.80;;;9.20;41.00;;;;;;5032004;28;20630;-51
2021/04/09 00:21:19;;;;;;;6.20;4.60;;;9.20;41.10;;;;;;5031668;28;20681;-51
2021/04/09 00:23:46;;;;;;;9.07;4.97;;;9.20;41.20;;;;;;5024968;28;21191;-51
2021/04/09 00:26:12;;;;;;;5.03;4.50;;;9.20;41.10;;;;;;5031992;28;21256;-51
2021/04/09 00:28:39;;;;;;;5.97;4.87;;;9.20;41.00;;;;;;5031598;28;20624;-51
2021/04/09 00:31:06;;;;;;;5.73;5.13;;;9.20;41.20;;;;;;5032234;28;20707;-50
2021/04/09 00:33:34;;;;;;;5.60;5.00;;;9.10;41.10;;;;;;5031682;28;21038;-50
2021/04/09 00:36:01;;;;;;;6.83;5.60;;;9.10;41.00;;;;;;5031676;28;20634;-50
2021/04/09 00:38:27;;;;;;;8.83;5.40;;;9.00;40.90;;;;;;5031712;28;20682;-50
2021/04/09 00:40:54;;;;;;;6.50;5.07;;;9.00;40.90;;;;;;5031600;28;20660;-50
2021/04/09 00:43:21;;;;;;;8.97;5.40;;;9.00;40.60;;;;;;5031089;28;20661;-50
2021/04/09 00:45:48;;;;;;;7.07;5.40;;;9.00;40.70;;;;;;5031354;28;20738;-50
2021/04/09 00:48:15;;;;;;;8.13;5.13;;;9.00;40.20;;;;;;5031715;28;20630;-50
2021/04/09 00:50:42;;;;;;;5.40;4.90;;;9.00;39.90;;;;;;5031715;28;20629;-50
2021/04/09 00:53:11;;;;;;;8.67;4.40;;;9.00;39.70;;;;;;5029931;28;20680;-51
2021/04/09 00:55:38;;;;;;;9.50;5.50;;;9.00;39.80;;;;;;5030820;28;21199;-50
2021/04/09 00:58:05;;;;;;;6.63;5.03;;;9.00;39.80;;;;;;5029650;28;20680;-50
2021/04/09 01:00:32;;;;;;;6.23;5.20;;;9.00;39.90;;;;;;5031413;28;20628;-50
2021/04/09 01:02:59;;;;;;;8.80;5.30;;;9.00;40.10;;;;;;5029587;28;20715;-51
2021/04/09 01:05:26;;;;;;;7.67;5.90;;;8.90;40.10;;;;;;5031443;28;20756;-50
2021/04/09 01:07:54;;;;;;;8.63;5.50;;;8.90;40.10;;;;;;5031259;28;21027;-50
2021/04/09 01:10:21;;;;;;;7.30;5.10;;;8.80;40.40;;;;;;5031754;28;21155;-51
2021/04/09 01:12:49;;;;;;;7.80;5.93;;;8.80;40.50;;;;;;5031097;28;20687;-50
2021/04/09 01:15:16;;;;;;;5.53;4.93;;;8.70;40.70;;;;;;5031287;28;20992;-50
2021/04/09 01:17:45;;;;;;;7.10;5.40;;;8.70;41.00;;;;;;5031392;28;20972;-50
2021/04/09 01:21:02;;;;;;;6.90;5.97;;;8.80;40.90;;;;;;5030535;28;21204;-50
2021/04/09 01:23:38;;;;;;;5.57;5.07;;;8.70;40.70;;;;;;5031188;28;20664;-50
2021/04/09 01:26:24;;;;;;;6.30;4.60;;;8.70;40.90;;;;;;5032574;28;20631;-50
2021/04/09 01:28:59;;;;;;;7.03;5.70;;;8.60;41.00;;;;;;5030802;28;21155;-50
2021/04/09 01:31:38;;;;;;;8.53;5.17;;;8.60;41.10;;;;;;5046340;28;21040;-50
2021/04/09 01:34:05;;;;;;;5.90;5.30;;;8.60;41.10;;;;;;5051112;28;20631;-51
2021/04/09 01:36:34;;;;;;;4.87;4.40;;;8.50;41.10;;;;;;5037858;28;20637;-53
2021/04/09 01:39:02;;;;;;;6.93;5.00;;;8.50;41.80;;;;;;5030363;28;20636;-51
2021/04/09 01:41:29;;;;;;;7.37;5.50;;;8.50;42.10;;;;;;5030968;28;20700;-51
2021/04/09 01:43:58;;;;;;;5.90;5.40;;;8.50;42.30;;;;;;5049005;28;21109;-51
2021/04/09 01:46:24;;;;;;;6.17;5.10;;;8.40;42.60;;;;;;5050902;28;20630;-51
2021/04/09 01:48:52;;;;;;;9.20;5.83;;;8.30;42.70;;;;;;5047297;28;20709;-51
2021/04/09 01:51:19;;;;;;;7.80;5.67;;;8.30;42.80;;;;;;5030850;28;20624;-51
2021/04/09 01:53:47;;;;;;;6.33;5.23;;;8.20;42.90;;;;;;5030647;28;20627;-50
2021/04/09 01:56:14;;;;;;;7.60;5.10;;;8.10;43.00;;;;;;5030924;28;20621;-51
2021/04/09 01:58:41;;;;;;;5.30;4.60;;;8.00;43.10;;;;;;5030512;28;20667;-51
2021/04/09 02:01:08;;;;;;;7.00;5.00;;;8.00;43.30;;;;;;5029226;28;20669;-51
2021/04/09 02:03:35;;;;;;;8.50;6.60;;;7.90;43.40;;;;;;5032424;28;20660;-51
2021/04/09 02:06:02;;;;;;;6.57;4.70;;;7.80;43.50;;;;;;5033907;28;20968;-51
2021/04/09 02:08:30;;;;;;;6.43;5.40;;;7.70;43.60;;;;;;5034713;28;20631;-51
2021/04/09 02:10:57;;;;;;;5.70;5.07;;;7.70;43.70;;;;;;5034380;28;20693;-51
2021/04/09 02:13:24;;;;;;;4.50;4.10;;;7.70;43.80;;;;;;5034244;28;20623;-51
2021/04/09 02:15:53;;;;;;;5.93;4.53;;;7.60;43.90;;;;;;5034326;28;20644;-51
2021/04/09 02:18:19;;;;;;;6.93;4.50;;;7.60;44.20;;;;;;5034561;28;20681;-51
2021/04/09 02:20:46;;;;;;;8.07;4.40;;;7.50;44.70;;;;;;5033948;28;21061;-51
2021/04/09 02:23:14;;;;;;;4.63;4.20;;;7.50;45.00;;;;;;5034341;28;20717;-50
2021/04/09 02:25:40;;;;;;;5.43;5.00;;;7.50;45.00;;;;;;5017205;28;21176;-50
2021/04/09 02:28:07;;;;;;;8.10;5.00;;;7.50;44.90;;;;;;5012485;28;20663;-50
2021/04/09 02:30:34;;;;;;;5.80;4.63;;;7.60;45.20;;;;;;5030128;28;20631;-50
2021/04/09 02:33:01;;;;;;;8.90;5.30;;;7.50;45.20;;;;;;5034195;28;20651;-50
2021/04/09 02:35:27;;;;;;;6.87;5.37;;;7.50;45.10;;;;;;5017669;28;20986;-51
2021/04/09 02:37:54;;;;;;;9.00;4.50;;;7.50;45.10;;;;;;5013882;28;20628;-51
2021/04/09 02:40:23;;;;;;;5.27;4.77;;;7.50;45.20;;;;;;5027943;28;20621;-51
2021/04/09 02:42:51;;;;;;;7.07;4.83;;;7.50;45.20;;;;;;5034128;28;21049;-51
2021/04/09 02:45:18;;;;;;;4.33;3.93;;;7.50;45.40;;;;;;5034025;28;21157;-50
2021/04/09 02:47:45;;;;;;;5.43;4.93;;;7.50;45.60;;;;;;5033389;28;20627;-51
2021/04/09 02:50:14;;;;;;;6.30;4.53;;;7.40;45.60;;;;;;5033734;28;20630;-51
2021/04/09 02:52:44;;;;;;;6.57;5.30;;;7.40;45.40;;;;;;5033566;28;20670;-51
2021/04/09 02:55:13;;;;;;;8.03;4.90;;;7.30;45.50;;;;;;5033428;28;20696;-51
2021/04/09 02:57:41;;;;;;;7.93;3.90;;;7.30;45.70;;;;;;5033420;28;20657;-51
2021/04/09 03:00:09;;;;;;;4.67;4.17;;;7.30;45.80;;;;;;5033466;28;20638;-51
2021/04/09 03:02:36;;;;;;;5.23;4.77;;;7.20;45.90;;;;;;5030223;28;20676;-50
2021/04/09 03:05:05;;;;;;;5.63;4.10;;;7.20;46.00;;;;;;5032725;28;20663;-51
2021/04/09 03:07:31;;;;;;;7.03;5.10;;;7.20;46.00;;;;;;5033099;28;20635;-51
2021/04/09 03:09:58;;;;;;;5.67;5.07;;;7.10;46.00;;;;;;5033651;28;20638;-51
2021/04/09 03:12:25;;;;;;;5.50;5.00;;;7.00;46.60;;;;;;5033620;28;21178;-51
2021/04/09 03:14:53;;;;;;;8.23;4.87;;;7.00;46.30;;;;;;5031997;28;20643;-50
2021/04/09 03:17:25;;;;;;;9.30;4.53;;;7.00;46.50;;;;;;5027829;28;20713;-51
2021/04/09 03:19:52;;;;;;;6.20;4.30;;;7.10;46.50;;;;;;5033315;28;20666;-51
2021/04/09 03:22:19;;;;;;;6.60;5.07;;;7.10;46.30;;;;;;5033600;28;20631;-51
2021/04/09 03:24:45;;;;;;;5.13;4.30;;;7.00;46.10;;;;;;5032900;28;20797;-50
2021/04/09 03:27:14;;;;;;;6.17;5.60;;;6.90;46.20;;;;;;5032268;28;20631;-50
2021/04/09 03:29:41;;;;;;;5.47;3.80;;;6.90;46.80;;;;;;5037663;28;20622;-50
2021/04/09 03:32:09;;;;;;;5.30;4.80;;;6.80;46.90;;;;;;5053206;28;20618;-51
2021/04/09 03:34:36;;;;;;;6.20;4.87;;;6.70;46.60;;;;;;5040488;28;20708;-50
2021/04/09 03:37:02;;;;;;;5.23;4.83;;;6.70;46.80;;;;;;5032721;28;20627;-51
2021/04/09 03:39:29;;;;;;;5.83;5.23;;;6.70;46.80;;;;;;5031761;28;20651;-51
2021/04/09 03:41:56;;;;;;;6.73;6.13;;;6.60;47.00;;;;;;5032936;28;20671;-51
2021/04/09 03:44:23;;;;;;;5.67;4.67;;;6.40;47.00;;;;;;5032491;28;21317;-51
2021/04/09 03:46:49;;;;;;;6.90;4.93;;;6.40;47.20;;;;;;5045079;28;20676;-51
2021/04/09 03:49:17;;;;;;;10.07;5.23;;;6.30;47.60;;;;;;5033434;28;20642;-51
2021/04/09 03:51:44;;;;;;;7.70;5.40;;;6.30;47.80;;;;;;5032520;28;20669;-50
2021/04/09 03:54:11;;;;;;;8.07;5.00;;;6.30;48.00;;;;;;5032147;28;20662;-51
2021/04/09 03:56:37;;;;;;;8.00;6.03;;;6.30;47.90;;;;;;5032528;28;20623;-51
2021/04/09 03:59:04;;;;;;;7.67;5.00;;;6.30;47.90;;;;;;5033858;28;20693;-51
2021/04/09 04:01:31;;;;;;;5.90;4.90;;;6.20;48.00;;;;;;5012743;28;21236;-50
2021/04/09 04:03:58;;;;;;;7.13;5.13;;;6.20;48.10;;;;;;5038587;28;20743;-51
2021/04/09 04:06:25;;;;;;;6.60;5.90;;;6.20;48.20;;;;;;5033171;28;20626;-51
2021/04/09 04:08:52;;;;;;;4.90;4.10;;;6.20;48.40;;;;;;5031722;28;20646;-51
2021/04/09 04:11:19;;;;;;;7.33;4.70;;;6.20;48.60;;;;;;5021777;28;20682;-51
2021/04/09 04:13:45;;;;;;;9.10;5.30;;;6.30;49.00;;;;;;5013945;28;20647;-51
2021/04/09 04:16:12;;;;;;;6.27;4.73;;;6.30;49.00;;;;;;5031846;28;20689;-50
2021/04/09 04:18:39;;;;;;;8.90;5.33;;;6.30;49.20;;;;;;5030869;28;20694;-51
2021/04/09 04:21:06;;;;;;;7.07;5.87;;;6.30;49.10;;;;;;5032112;28;20634;-51
2021/04/09 04:23:33;;;;;;;5.80;5.20;;;6.40;49.10;;;;;;5032012;28;20705;-50
2021/04/09 04:26:00;;;;;;;8.17;6.67;;;6.40;48.90;;;;;;5012304;28;20686;-51
2021/04/09 04:28:27;;;;;;;9.93;6.70;;;6.40;48.90;;;;;;5012051;28;20635;-50
2021/04/09 04:30:55;;;;;;;9.23;6.83;;;6.40;48.90;;;;;;5030833;28;20693;-51
2021/04/09 04:33:21;;;;;;;10.40;6.87;;;6.40;48.80;;;;;;5031903;28;20672;-51
2021/04/09 04:35:49;;;;;;;13.10;7.20;;;6.50;48.70;;;;;;5031318;28;20670;-51
2021/04/09 04:38:15;;;;;;;10.03;7.97;;;6.50;48.50;;;;;;5031057;28;20639;-51
2021/04/09 04:40:43;;;;;;;8.00;6.80;;;6.50;48.60;;;;;;5018147;28;20627;-51
2021/04/09 04:43:10;;;;;;;8.93;6.73;;;6.50;48.50;;;;;;5031182;28;20635;-51
2021/04/09 04:45:37;;;;;;;10.13;6.70;;;6.60;48.40;;;;;;5031870;28;20658;-50
2021/04/09 04:48:05;;;;;;;10.40;7.17;;;6.60;48.20;;;;;;5031289;28;20627;-51
2021/04/09 04:50:32;;;;;;;7.53;6.40;;;6.60;48.30;;;;;;5031619;28;21191;-51
2021/04/09 04:52:59;;;;;;;14.70;7.93;;;6.60;48.30;;;;;;5031222;28;20696;-51
2021/04/09 04:55:26;;;;;;;6.83;6.23;;;6.60;48.30;;;;;;5031796;28;21215;-51
2021/04/09 04:57:53;;;;;;;10.10;6.87;;;6.60;48.20;;;;;;5031413;28;20622;-56
2021/04/09 05:00:21;;;;;;;9.33;5.97;;;6.60;48.20;;;;;;5030447;28;20654;-51
2021/04/09 05:02:48;;;;;;;9.73;7.10;;;6.70;48.30;;;;;;5031128;28;20624;-51
2021/04/09 05:05:15;;;;;;;6.80;6.10;;;6.80;48.20;;;;;;5030909;28;20699;-51
2021/04/09 05:07:41;;;;;;;9.40;6.20;;;6.70;48.00;;;;;;5026992;28;20704;-51
2021/04/09 05:10:09;;;;;;;9.73;8.10;;;6.80;48.10;;;;;;5011540;28;20637;-51
2021/04/09 05:12:36;;;;;;;16.43;7.23;;;6.80;48.20;;;;;;5012829;28;21184;-51
2021/04/09 05:15:05;;;;;;;9.93;7.00;;;6.80;48.20;;;;;;5010251;28;20706;-50
2021/04/09 05:17:32;;;;;;;7.03;6.00;;;6.80;48.20;;;;;;5016434;28;20689;-50
2021/04/09 05:19:58;;;;;;;10.63;7.37;;;6.80;48.40;;;;;;5025651;28;20635;-51
2021/04/09 05:22:25;;;;;;;11.47;6.47;;;6.90;48.40;;;;;;5031547;28;21190;-53
2021/04/09 05:24:52;;;;;;;8.33;7.27;;;6.90;48.30;;;;;;5018049;28;20672;-50
2021/04/09 05:27:19;;;;;;;10.30;7.97;;;6.80;48.30;;;;;;5010778;28;20663;-51
2021/04/09 05:29:46;;;;;;;10.60;6.53;;;6.90;48.50;;;;;;5017276;28;20623;-52
2021/04/09 05:32:13;;;;;;;6.90;6.20;;;6.80;48.60;;;;;;5043588;28;20622;-52
2021/04/09 05:34:40;;;;;;;10.83;6.30;;;6.80;48.70;;;;;;5030525;28;20659;-51
2021/04/09 05:37:07;;;;;;;13.43;7.17;;;6.90;48.60;;;;;;5038603;28;20663;-52
2021/04/09 05:39:34;;;;;;;7.00;6.23;;;6.90;48.60;;;;;;5034516;28;21042;-53
2021/04/09 05:42:01;;;;;;;7.90;7.10;;;6.90;48.60;;;;;;5035007;28;20631;-52
2021/04/09 05:44:30;;;;;;;11.27;6.70;;;7.00;48.40;;;;;;5032848;28;20677;-51
2021/04/09 05:46:57;;;;;;;8.63;7.03;;;6.90;48.30;;;;;;5034526;28;20616;-52
2021/04/09 05:49:25;;;;;;;11.37;7.03;;;7.00;48.30;;;;;;5031155;28;20623;-50
2021/04/09 05:51:51;;;;;;;8.37;7.10;;;7.00;48.40;;;;;;5023224;28;20676;-52
2021/04/09 05:54:18;;;;;;;8.20;6.10;;;7.00;48.40;;;;;;5028639;28;20655;-51
2021/04/09 05:56:45;;;;;;;9.53;6.50;;;7.00;48.40;;;;;;5023250;28;20654;-50
2021/04/09 05:59:12;;;;;;;6.87;5.70;;;7.00;48.40;;;;;;5033818;28;21025;-50
2021/04/09 06:01:39;;;;;;;9.20;8.17;;;7.00;48.30;;;;;;5046114;28;21171;-52
2021/04/09 06:04:05;;;;;;;10.93;7.77;;;7.00;48.30;;;;;;5049722;28;21025;-53
2021/04/09 06:06:33;;;;;;;13.37;7.97;;;7.00;48.40;;;;;;5036131;28;20641;-52
2021/04/09 06:09:01;;;;;;;8.20;7.17;;;7.00;48.30;;;;;;5033513;28;20708;-53
2021/04/09 06:11:28;;;;;;;14.40;7.93;;;7.00;48.40;;;;;;5034320;28;20662;-52
2021/04/09 06:13:55;;;;;;;10.60;6.63;;;7.00;48.50;;;;;;5043894;28;20661;-51
2021/04/09 06:16:22;;;;;;;5.90;5.40;;;7.00;48.50;;;;;;5053993;28;21188;-50
2021/04/09 06:18:49;;;;;;;8.13;7.03;;;6.90;48.40;;;;;;5034540;28;21155;-51
2021/04/09 06:21:15;;;;;;;8.20;6.77;;;6.90;48.70;;;;;;5033957;28;20997;-52
2021/04/09 06:23:43;;;;;;;9.00;6.90;;;7.00;49.00;;;;;;5033591;28;21211;-52
2021/04/09 06:26:10;;;;;;;10.63;7.10;;;7.10;48.70;;;;;;5033867;28;20723;-51
2021/04/09 06:28:37;;;;;;;13.07;7.30;;;7.10;48.60;;;;;;5026436;28;20627;-50
2021/04/09 06:31:05;;;;;;;9.13;6.50;;;7.10;48.50;;;;;;5014455;28;20687;-50
2021/04/09 06:33:32;;;;;;;6.93;6.17;;;7.10;48.60;;;;;;5014628;28;20664;-50
2021/04/09 06:35:59;;;;;;;8.50;7.60;;;7.20;48.60;;;;;;5029933;28;20632;-51
2021/04/09 06:38:25;;;;;;;9.00;7.47;;;7.30;48.40;;;;;;5033487;28;20631;-50
2021/04/09 06:40:53;;;;;;;8.50;6.50;;;7.50;48.00;;;;;;5034147;28;20691;-51
2021/04/09 06:43:20;;;;;;;11.00;7.90;;;7.60;47.70;;;;;;5033722;28;20694;-51
2021/04/09 06:45:47;;;;;;;8.80;7.10;;;7.70;47.40;;;;;;5033062;28;20669;-51
2021/04/09 06:48:14;;;;;;;9.00;7.90;;;7.80;47.20;;;;;;5033501;28;20629;-51
2021/04/09 06:50:41;;;;;;;10.83;7.70;;;7.80;47.20;;;;;;5033351;28;20638;-51
2021/04/09 06:53:08;;;;;;;7.07;6.37;;;7.80;46.90;;;;;;5033385;28;20632;-51
2021/04/09 06:55:35;;;;;;;8.00;6.83;;;7.90;47.10;;;;;;5032796;28;20662;-51
2021/04/09 06:58:02;;;;;;;9.37;7.00;;;8.00;47.10;;;;;;5033361;28;21193;-51
2021/04/09 07:00:31;;;;;;;7.03;6.33;;;8.10;46.90;;;;;;5032787;28;20634;-50
2021/04/09 07:02:58;;;;;;;9.77;6.90;;;8.20;46.90;;;;;;5049449;28;20680;-51
2021/04/09 07:05:26;;;;;;;9.53;7.10;;;8.20;46.70;;;;;;5044490;28;20733;-51
2021/04/09 07:07:53;;;;;;;7.50;6.77;;;8.40;46.80;;;;;;5052607;28;20661;-51
2021/04/09 07:10:21;;;;;;;8.60;6.80;;;8.60;46.70;;;;;;5037551;28;20627;-50
2021/04/09 07:12:48;;;;;;;8.80;6.30;;;8.80;46.20;;;;;;5032913;28;20695;-51
2021/04/09 07:15:18;;;;;;;7.40;6.23;;;8.90;45.70;;;;;;5032542;28;20655;-50
2021/04/09 07:17:46;;;;;;;11.57;7.40;;;9.00;45.30;;;;;;5032844;28;20685;-52
2021/04/09 07:20:15;;;;;;;7.40;6.70;;;9.10;45.00;;;;;;5033036;28;20626;-52
2021/04/09 07:22:42;;;;;;;6.63;5.97;;;9.20;44.90;;;;;;5050451;28;21045;-51
2021/04/09 07:25:11;;;;;;;10.00;7.30;;;9.20;44.70;;;;;;5033332;28;20728;-51
2021/04/09 07:27:38;;;;;;;7.43;6.53;;;9.30;44.60;;;;;;5051450;28;20622;-52
2021/04/09 07:30:06;;;;;;;7.63;6.13;;;9.30;44.30;;;;;;5047719;28;21039;-50
2021/04/09 07:32:35;;;;;;;8.37;5.70;;;9.40;44.20;;;;;;5032441;28;20626;-49
2021/04/09 07:35:07;;;;;;;7.03;6.30;;;9.50;43.70;;;;;;5032436;28;20655;-50
2021/04/09 07:37:47;;;;;;;10.80;6.13;;;9.50;43.60;;;;;;5031978;28;20638;-51
2021/04/09 07:40:15;;;;;;;8.80;6.60;;;9.60;43.70;;;;;;5023777;28;20688;-51
2021/04/09 07:42:42;;;;;;;9.07;6.73;;;9.80;43.70;;;;;;5032870;28;20714;-51
2021/04/09 07:45:11;;;;;;;17.00;7.10;;;9.90;42.90;;;;;;5029817;28;20748;-52
2021/04/09 07:47:39;;;;;;;6.97;6.37;;;10.00;41.80;;;;;;5012679;28;20674;-52
2021/04/09 07:50:08;;;;;;;10.13;8.60;;;10.10;41.50;;;;;;5025869;28;20692;-52
2021/04/09 07:52:42;;;;;;;8.27;7.57;;;10.10;41.50;;;;;;5033088;28;20680;-52
2021/04/09 07:55:14;;;;;;;7.53;6.90;;;10.20;41.30;;;;;;5031802;28;20673;-52
2021/04/09 07:57:41;;;;;;;10.60;6.20;;;10.30;41.00;;;;;;5032222;28;20636;-52
2021/04/09 08:00:18;;;;;;;8.53;7.73;;;10.40;40.70;;;;;;5032390;28;20693;-52
2021/04/09 08:02:46;;;;;;;6.93;6.23;;;10.50;40.60;;;;;;5031998;28;20657;-52
2021/04/09 08:05:15;;;;;;;8.27;7.27;;;10.60;40.20;;;;;;5032076;28;21212;-51
2021/04/09 08:07:42;;;;;;;6.67;6.00;;;10.80;40.50;;;;;;5032040;28;20631;-50
2021/04/09 08:10:10;;;;;;;7.73;6.90;;;11.00;40.20;;;;;;5032259;28;20630;-51
2021/04/09 08:12:38;;;;;;;12.10;7.73;;;11.20;40.20;;;;;;5031787;28;20642;-53
2021/04/09 08:15:16;;;;;;;7.60;6.63;;;11.30;40.30;;;;;;5031491;28;20702;-49
2021/04/09 08:17:43;;;;;;;8.63;7.50;;;11.50;40.30;;;;;;5031047;28;20635;-51
2021/04/09 08:20:12;;;;;;;8.30;7.03;;;11.70;39.40;;;;;;5035546;28;20618;-51
2021/04/09 08:22:39;;;;;;;7.93;6.30;;;12.00;39.40;;;;;;5032152;28;21012;-51
2021/04/09 08:25:07;;;;;;;6.23;5.50;;;12.10;38.80;;;;;;5031694;28;20720;-51
2021/04/09 08:27:35;;;;;;;11.03;7.80;;;12.20;38.50;;;;;;5029723;28;20619;-51
2021/04/09 08:30:02;;;;;;;11.03;7.07;;;12.10;38.80;;;;;;5031899;28;21285;-51
2021/04/09 08:32:30;;;;;;;9.20;6.00;;;12.00;38.60;;;;;;5031860;28;21194;-51
2021/04/09 08:34:57;;;;;;;10.20;6.70;;;11.90;38.70;;;;;;5031342;28;20969;-51
2021/04/09 08:37:25;;;;;;;8.03;7.23;;;11.80;39.10;;;;;;5030070;28;20622;-51
2021/04/09 08:39:52;;;;;;;10.43;6.90;;;11.70;39.30;;;;;;5030995;28;20645;-51
2021/04/09 08:42:19;;;;;;;7.40;6.80;;;11.80;39.60;;;;;;5030063;28;20627;-51
2021/04/09 08:44:46;;;;;;;8.57;7.70;;;11.90;39.60;;;;;;5031869;28;20723;-52
2021/04/09 08:47:15;;;;;;;8.93;7.17;;;12.20;39.30;;;;;;5031323;28;20650;-51
2021/04/09 08:49:42;;;;;;;8.20;7.50;;;12.40;39.20;;;;;;5027460;28;21227;-51
2021/04/09 08:52:09;;;;;;;8.90;8.07;;;12.60;38.70;;;;;;5013828;28;20682;-51
2021/04/09 08:54:48;;;;;;;7.20;6.33;;;12.80;38.50;;;;;;5031376;28;20734;-52
2021/04/09 08:57:26;;;;;;;7.50;6.87;;;13.10;37.30;;;;;;5031382;28;20623;-53
2021/04/09 08:59:57;;;;;;;12.20;6.70;;;13.30;36.80;;;;;;5031193;28;20635;-52
2021/04/09 09:02:25;;;;;;;8.90;6.20;;;13.40;37.40;;;;;;5030494;28;20694;-53
2021/04/09 09:04:58;;;;;;;9.77;6.57;;;13.50;36.70;;;;;;5030299;28;21001;-52
2021/04/09 09:07:52;;;;;;;7.20;6.50;;;13.60;36.30;;;;;;5030704;28;20689;-52
2021/04/09 09:10:47;;;;;;;8.30;6.07;;;13.60;36.20;;;;;;5027120;28;20627;-52
2021/04/09 09:13:23;;;;;;;10.43;6.73;;;13.70;36.00;;;;;;5005804;28;20689;-51
2021/04/09 09:15:54;;;;;;;7.57;6.73;;;13.80;35.60;;;;;;5030712;28;20995;-52
2021/04/09 09:18:40;;;;;;;7.33;6.40;;;13.80;35.50;;;;;;5030462;28;20631;-52
2021/04/09 09:21:09;;;;;;;8.00;6.77;;;13.90;35.70;;;;;;5031286;28;20657;-52
2021/04/09 09:23:41;;;;;;;9.40;7.17;;;14.10;34.90;;;;;;5030125;28;20641;-53
2021/04/09 09:26:18;;;;;;;6.90;6.30;;;14.10;34.70;;;;;;5030271;28;20713;-51
2021/04/09 09:28:46;;;;;;;7.33;6.43;;;14.10;34.60;;;;;;5030511;28;20627;-51
2021/04/09 09:31:27;;;;;;;9.40;6.30;;;14.20;34.80;;;;;;5030537;28;20623;-52
2021/04/09 09:34:24;;;;;;;7.13;6.43;;;14.30;34.80;;;;;;5030480;28;20670;-51
2021/04/09 09:37:00;;;;;;;6.27;5.70;;;14.50;34.70;;;;;;5030676;28;20623;-52
2021/04/09 09:39:38;;;;;;;6.80;6.17;;;14.50;34.80;;;;;;5029585;28;20630;-50
2021/04/09 09:42:07;;;;;;;8.37;7.20;;;14.40;34.50;;;;;;5030878;28;21033;-51
2021/04/09 09:44:35;;;;;;;9.93;7.57;;;14.30;34.40;;;;;;5030602;28;20674;-51
2021/04/09 09:47:03;;;;;;;7.83;5.47;;;14.40;34.80;;;;;;5030354;28;20630;-51
2021/04/09 09:49:33;;;;;;;8.37;6.20;;;14.50;34.90;;;;;;5030163;28;20631;-52
2021/04/09 09:52:00;;;;;;;6.57;5.90;;;14.60;34.90;;;;;;5030702;28;20623;-51
2021/04/09 09:54:28;;;;;;;7.80;6.27;;;14.60;35.00;;;;;;5030269;28;20717;-50
2021/04/09 09:56:55;;;;;;;7.60;6.07;;;14.60;35.00;;;;;;5030556;28;20623;-51
2021/04/09 09:59:26;;;;;;;8.30;5.80;;;14.60;35.20;;;;;;5029555;28;20619;-51
2021/04/09 10:01:54;;;;;;;7.80;6.80;;;14.70;35.30;;;;;;5024710;28;20642;-51
2021/04/09 10:04:21;;;;;;;5.60;4.57;;;14.80;35.00;;;;;;5021896;28;20686;-52
2021/04/09 10:06:52;;;;;;;7.40;5.53;;;14.90;34.70;;;;;;5031040;28;21132;-51
2021/04/09 10:09:26;;;;;;;5.97;5.00;;;14.90;34.60;;;;;;5011515;28;20611;-50
2021/04/09 10:11:52;;;;;;;8.10;5.07;;;15.00;34.60;;;;;;5015440;28;20634;-51
2021/04/09 10:14:19;;;;;;;5.20;4.00;;;15.20;34.80;;;;;;5030378;28;20721;-51
2021/04/09 10:16:47;;;;;;;6.07;4.20;;;15.40;34.80;;;;;;5030654;28;20623;-52
2021/04/09 10:19:14;;;;;;;8.33;4.80;;;15.60;34.50;;;;;;5030060;28;20867;-51
2021/04/09 10:21:41;;;;;;;6.40;5.17;;;15.80;34.70;;;;;;5030057;28;20643;-51
2021/04/09 10:24:09;;;;;;;9.43;6.10;;;16.20;34.40;;;;;;5031531;28;20669;-51
2021/04/09 10:26:36;;;;;;;5.33;4.87;;;16.30;33.80;;;;;;5033886;28;21210;-51
2021/04/09 10:29:17;;;;;;;7.23;5.33;;;16.50;33.60;;;;;;5034085;28;20614;-51
2021/04/09 10:31:44;;;;;;;9.30;5.63;;;16.30;33.70;;;;;;5034417;28;20700;-52
2021/04/09 10:34:11;;;;;;;5.93;5.20;;;16.20;33.90;;;;;;5034426;28;20813;-51
2021/04/09 10:36:39;;;;;;;6.63;5.30;;;16.10;34.10;;;;;;5028731;28;20690;-52
2021/04/09 10:39:11;;;;;;;5.97;5.27;;;16.00;34.50;;;;;;5013686;28;20623;-52
2021/04/09 10:41:38;;;;;;;5.37;4.87;;;16.00;34.20;;;;;;5030187;28;21049;-52
2021/04/09 10:44:06;;;;;;;8.80;5.00;;;16.00;34.10;;;;;;5015407;28;20729;-52
2021/04/09 10:46:34;;;;;;;7.63;6.87;;;16.20;34.50;;;;;;5023329;28;20740;-52
2021/04/09 10:49:04;;;;;;;5.53;4.80;;;16.50;34.10;;;;;;5033332;28;20623;-52
2021/04/09 10:51:33;;;;;;;7.23;4.00;;;17.00;34.00;;;;;;5031107;28;20700;-52
2021/04/09 10:54:00;;;;;;;5.87;5.37;;;17.20;33.00;;;;;;5013754;28;20651;-51
2021/04/09 10:56:26;;;;;;;5.37;4.87;;;16.90;33.00;;;;;;5013797;28;20631;-51
2021/04/09 10:58:53;;;;;;;9.70;6.53;;;16.80;33.30;;;;;;5013294;28;20624;-51
2021/04/09 11:01:24;;;;;;;5.27;4.83;;;16.50;33.30;;;;;;5012311;28;20627;-51
2021/04/09 11:03:51;;;;;;;5.93;5.33;;;16.50;33.90;;;;;;5015462;28;20623;-51
2021/04/09 11:06:19;;;;;;;6.67;6.00;;;16.60;33.80;;;;;;5031622;28;20659;-51
2021/04/09 11:08:46;;;;;;;9.50;6.13;;;16.70;33.60;;;;;;5033275;28;20764;-51
2021/04/09 11:11:14;;;;;;;5.73;4.43;;;16.90;33.80;;;;;;5032642;28;20647;-51
2021/04/09 11:13:42;;;;;;;6.03;5.50;;;17.20;32.70;;;;;;5032881;28;20873;-52
2021/04/09 11:16:10;;;;;;;7.87;5.80;;;17.40;32.50;;;;;;5032624;28;20623;-51
2021/04/09 11:18:49;;;;;;;6.13;5.33;;;17.40;31.80;;;;;;5032603;28;20634;-51
2021/04/09 11:21:16;;;;;;;10.53;6.70;;;17.10;31.50;;;;;;5032891;28;20634;-51
2021/04/09 11:23:43;;;;;;;6.27;5.67;;;17.10;31.90;;;;;;5033050;28;20631;-52
2021/04/09 11:26:17;;;;;;;9.40;6.30;;;17.40;32.30;;;;;;5032759;28;20689;-51
2021/04/09 11:28:51;;;;;;;8.77;7.47;;;17.30;31.70;;;;;;5032794;28;20638;-50
2021/04/09 11:31:21;;;;;;;15.13;8.90;;;17.20;32.10;;;;;;5032836;28;20755;-51
2021/04/09 11:33:48;;;;;;;6.93;5.90;;;16.90;31.50;;;;;;5032843;28;21421;-52
2021/04/09 11:36:15;;;;;;;10.43;6.10;;;16.90;31.90;;;;;;5030809;28;20626;-52
2021/04/09 11:38:42;;;;;;;7.70;5.63;;;16.90;31.70;;;;;;5032879;28;20665;-51
2021/04/09 11:41:28;;;;;;;6.43;5.80;;;17.00;31.60;;;;;;5032880;28;21184;-51
2021/04/09 11:43:55;;;;;;;9.53;6.10;;;17.20;31.20;;;;;;5030895;28;20658;-51
2021/04/09 11:46:33;;;;;;;6.47;5.53;;;17.20;30.20;;;;;;5033164;28;20659;-52
2021/04/09 11:49:04;;;;;;;6.77;5.83;;;17.20;30.30;;;;;;5032068;28;20630;-52
2021/04/09 11:51:30;;;;;;;7.70;6.50;;;17.10;30.20;;;;;;5030463;28;20688;-53
2021/04/09 11:53:58;;;;;;;5.20;4.30;;;17.20;30.40;;;;;;5032296;28;21073;-52
2021/04/09 11:56:42;;;;;;;5.53;5.03;;;17.50;30.20;;;;;;5032237;28;20611;-52
2021/04/09 11:59:10;;;;;;;5.73;4.73;;;17.60;29.70;;;;;;5032327;28;20713;-52
2021/04/09 12:01:37;;;;;;;6.60;6.00;;;17.80;29.70;;;;;;5032432;28;21032;-53
2021/04/09 12:04:04;;;;;;;5.97;5.43;;;18.00;29.60;;;;;;5032926;28;20651;-52
2021/04/09 12:06:37;;;;;;;5.77;5.20;;;18.20;29.70;;;;;;5032519;28;20720;-52
2021/04/09 12:09:04;;;;;;;8.63;6.00;;;18.50;29.60;;;;;;5031789;28;21031;-51
2021/04/09 12:11:31;;;;;;;7.90;4.93;;;18.60;29.20;;;;;;5028146;28;20639;-52
2021/04/09 12:13:59;;;;;;;8.47;6.00;;;18.70;29.10;;;;;;5031788;28;20709;-53
2021/04/09 12:16:26;;;;;;;8.00;6.30;;;18.80;29.20;;;;;;5029996;28;20612;-51
2021/04/09 12:18:53;;;;;;;7.73;6.93;;;18.70;29.10;;;;;;5012184;28;20908;-52
2021/04/09 12:21:19;;;;;;;8.33;5.93;;;18.60;29.20;;;;;;5010750;28;20635;-52
2021/04/09 12:23:46;;;;;;;8.90;5.63;;;18.40;29.70;;;;;;5011817;28;20647;-52
2021/04/09 12:26:13;;;;;;;9.77;6.93;;;18.10;29.60;;;;;;5012137;28;21224;-51
2021/04/09 12:28:40;;;;;;;8.73;6.07;;;18.00;29.70;;;;;;5011628;28;20639;-52
2021/04/09 12:31:10;;;;;;;7.53;6.47;;;17.90;30.10;;;;;;5011791;28;20682;-52
2021/04/09 12:33:38;;;;;;;7.73;6.10;;;18.10;30.40;;;;;;5011812;28;20678;-50
2021/04/09 12:36:05;;;;;;;9.53;7.50;;;18.30;30.00;;;;;;5011536;28;20624;-52
2021/04/09 12:38:32;;;;;;;6.17;5.33;;;18.30;29.50;;;;;;5022234;28;20697;-52
2021/04/09 12:40:59;;;;;;;7.90;7.10;;;18.30;29.40;;;;;;5031601;28;20650;-52
2021/04/09 12:43:27;;;;;;;11.13;5.97;;;18.20;29.70;;;;;;5031426;28;20661;-52
2021/04/09 12:45:54;;;;;;;8.17;6.70;;;18.10;29.70;;;;;;5031191;28;20675;-52
2021/04/09 12:48:22;;;;;;;6.37;5.03;;;18.10;29.90;;;;;;5030880;28;20623;-53
2021/04/09 12:50:49;;;;;;;6.40;5.80;;;17.90;29.90;;;;;;5030937;28;20627;-52
2021/04/09 12:53:16;;;;;;;6.40;5.67;;;17.70;30.10;;;;;;5031075;28;21187;-52
2021/04/09 12:55:43;;;;;;;7.47;6.87;;;17.70;29.80;;;;;;5030782;28;21481;-51
2021/04/09 12:58:11;;;;;;;7.40;5.10;;;18.00;29.70;;;;;;5030780;28;20655;-52